sensor_id;sensor_type;location;lat;lon;timestamp;temperature;humidity
45735;DHT22;31446;49.632;8.328;2023-04-25T00:07:31;9.00;99.90
45735;DHT22;31446;49.632;8.328;2023-04-25T00:22:37;9.00;99.90
45735;DHT22;31446;49.632;8.328;2023-04-25T00:37:44;9.10;99.90
45735;DHT22;31446;49.632;8.328;2023-04-25T00:52:50;9.20;99.90
45735;DHT22;31446;49.632;8.328;2023-04-25T01:07:57;9.00;99.90
45735;DHT22;31446;49.632;8.328;2023-04-25T01:23:04;8.90;99.90
45735;DHT22;31446;49.632;8.328;2023-04-25T01:38:12;8.70;99.90
45735;DHT22;31446;49.632;8.328;2023-04-25T01:53:18;8.70;99.90
45735;DHT22;31446;49.632;8.328;2023-04-25T02:08:26;8.50;99.90
45735;DHT22;31446;49.632;8.328;2023-04-25T02:23:33;8.70;99.90
45735;DHT22;31446;49.632;8.328;2023-04-25T02:38:40;8.70;99.90
45735;DHT22;31446;49.632;8.328;2023-04-25T02:53:46;8.70;99.90
45735;DHT22;31446;49.632;8.328;2023-04-25T03:08:53;8.80;99.90
45735;DHT22;31446;49.632;8.328;2023-04-25T03:24:00;8.80;99.90
45735;DHT22;31446;49.632;8.328;2023-04-25T03:39:06;8.70;99.90
45735;DHT22;31446;49.632;8.328;2023-04-25T03:54:12;8.70;99.90
45735;DHT22;31446;49.632;8.328;2023-04-25T04:09:19;8.60;99.90
45735;DHT22;31446;49.632;8.328;2023-04-25T04:24:25;8.60;99.90
45735;DHT22;31446;49.632;8.328;2023-04-25T04:39:32;8.60;99.90
45735;DHT22;31446;49.632;8.328;2023-04-25T04:54:38;8.50;99.90
45735;DHT22;31446;49.632;8.328;2023-04-25T05:09:44;8.50;99.90
45735;DHT22;31446;49.632;8.328;2023-04-25T05:24:51;8.80;99.90
45735;DHT22;31446;49.632;8.328;2023-04-25T05:39:58;9.40;99.90
45735;DHT22;31446;49.632;8.328;2023-04-25T05:55:05;9.90;99.90
45735;DHT22;31446;49.632;8.328;2023-04-25T06:10:12;9.70;99.90
45735;DHT22;31446;49.632;8.328;2023-04-25T06:25:18;9.60;99.90
45735;DHT22;31446;49.632;8.328;2023-04-25T06:40:25;9.40;99.90
45735;DHT22;31446;49.632;8.328;2023-04-25T06:55:31;9.40;99.90
45735;DHT22;31446;49.632;8.328;2023-04-25T07:10:38;9.20;99.90
45735;DHT22;31446;49.632;8.328;2023-04-25T07:25:45;9.50;99.90
45735;DHT22;31446;49.632;8.328;2023-04-25T07:40:51;10.00;99.90
45735;DHT22;31446;49.632;8.328;2023-04-25T07:55:58;10.90;99.90
45735;DHT22;31446;49.632;8.328;2023-04-25T08:11:04;10.30;99.90
45735;DHT22;31446;49.632;8.328;2023-04-25T08:26:11;10.80;99.90
45735;DHT22;31446;49.632;8.328;2023-04-25T08:41:18;11.50;99.90
45735;DHT22;31446;49.632;8.328;2023-04-25T08:56:26;11.10;99.90
45735;DHT22;31446;49.632;8.328;2023-04-25T09:11:32;11.50;99.90
45735;DHT22;31446;49.632;8.328;2023-04-25T09:26:39;12.30;99.90
45735;DHT22;31446;49.632;8.328;2023-04-25T09:41:47;12.70;99.90
45735;DHT22;31446;49.632;8.328;2023-04-25T09:56:54;12.60;99.90
45735;DHT22;31446;49.632;8.328;2023-04-25T10:12:00;12.40;99.90
45735;DHT22;31446;49.632;8.328;2023-04-25T10:27:07;13.10;99.90
45735;DHT22;31446;49.632;8.328;2023-04-25T10:42:14;12.50;99.90
45735;DHT22;31446;49.632;8.328;2023-04-25T10:57:37;11.40;99.90
45735;DHT22;31446;49.632;8.328;2023-04-25T11:12:45;12.00;99.90
45735;DHT22;31446;49.632;8.328;2023-04-25T11:27:54;12.90;99.90
45735;DHT22;31446;49.632;8.328;2023-04-25T11:43:01;12.80;99.90
45735;DHT22;31446;49.632;8.328;2023-04-25T11:58:11;12.60;99.90
45735;DHT22;31446;49.632;8.328;2023-04-25T12:13:23;13.70;99.90
45735;DHT22;31446;49.632;8.328;2023-04-25T12:28:32;12.60;99.90
45735;DHT22;31446;49.632;8.328;2023-04-25T12:43:38;14.00;99.90
45735;DHT22;31446;49.632;8.328;2023-04-25T12:58:45;13.20;99.90
45735;DHT22;31446;49.632;8.328;2023-04-25T13:13:52;13.30;99.90
45735;DHT22;31446;49.632;8.328;2023-04-25T13:28:58;13.80;99.90
45735;DHT22;31446;49.632;8.328;2023-04-25T13:44:07;13.70;99.90
45735;DHT22;31446;49.632;8.328;2023-04-25T13:59:14;14.00;99.90
45735;DHT22;31446;49.632;8.328;2023-04-25T14:14:22;14.00;99.90
45735;DHT22;31446;49.632;8.328;2023-04-25T14:29:28;13.10;99.90
45735;DHT22;31446;49.632;8.328;2023-04-25T14:44:34;13.70;99.90
45735;DHT22;31446;49.632;8.328;2023-04-25T14:59:43;14.40;99.20
45735;DHT22;31446;49.632;8.328;2023-04-25T15:14:49;14.50;96.40
45735;DHT22;31446;49.632;8.328;2023-04-25T15:29:56;13.60;97.80
45735;DHT22;31446;49.632;8.328;2023-04-25T15:45:03;13.40;96.60
45735;DHT22;31446;49.632;8.328;2023-04-25T16:00:11;13.10;97.30
45735;DHT22;31446;49.632;8.328;2023-04-25T16:15:19;12.40;96.60
45735;DHT22;31446;49.632;8.328;2023-04-25T16:30:26;12.30;97.20
45735;DHT22;31446;49.632;8.328;2023-04-25T16:45:33;12.40;97.20
45735;DHT22;31446;49.632;8.328;2023-04-25T17:00:40;12.20;97.20
45735;DHT22;31446;49.632;8.328;2023-04-25T17:15:47;12.00;96.90
45735;DHT22;31446;49.632;8.328;2023-04-25T17:30:56;11.70;97.80
45735;DHT22;31446;49.632;8.328;2023-04-25T17:46:02;11.50;98.00
45735;DHT22;31446;49.632;8.328;2023-04-25T18:01:08;10.70;94.90
45735;DHT22;31446;49.632;8.328;2023-04-25T18:16:15;10.30;96.10
45735;DHT22;31446;49.632;8.328;2023-04-25T18:31:21;10.10;97.10
45735;DHT22;31446;49.632;8.328;2023-04-25T18:46:29;9.90;98.50
45735;DHT22;31446;49.632;8.328;2023-04-25T19:01:36;9.60;99.80
45735;DHT22;31446;49.632;8.328;2023-04-25T19:16:42;9.40;99.90
45735;DHT22;31446;49.632;8.328;2023-04-25T19:31:49;9.30;99.90
45735;DHT22;31446;49.632;8.328;2023-04-25T19:46:55;9.10;99.90
45735;DHT22;31446;49.632;8.328;2023-04-25T20:02:02;9.00;99.90
45735;DHT22;31446;49.632;8.328;2023-04-25T20:17:11;8.90;99.90
45735;DHT22;31446;49.632;8.328;2023-04-25T20:32:18;8.80;99.90
45735;DHT22;31446;49.632;8.328;2023-04-25T20:47:25;8.60;99.90
45735;DHT22;31446;49.632;8.328;2023-04-25T21:02:32;8.40;99.90
45735;DHT22;31446;49.632;8.328;2023-04-25T21:17:38;8.10;99.90
45735;DHT22;31446;49.632;8.328;2023-04-25T21:32:46;7.80;99.90
45735;DHT22;31446;49.632;8.328;2023-04-25T21:47:53;7.40;99.90
45735;DHT22;31446;49.632;8.328;2023-04-25T22:02:59;7.00;99.90
45735;DHT22;31446;49.632;8.328;2023-04-25T22:18:06;6.70;99.90
45735;DHT22;31446;49.632;8.328;2023-04-25T22:33:13;6.60;99.90
45735;DHT22;31446;49.632;8.328;2023-04-25T22:48:19;6.30;99.90
45735;DHT22;31446;49.632;8.328;2023-04-25T23:03:26;5.60;99.90
45735;DHT22;31446;49.632;8.328;2023-04-25T23:18:32;5.60;99.90
45735;DHT22;31446;49.632;8.328;2023-04-25T23:33:38;5.50;99.90
45735;DHT22;31446;49.632;8.328;2023-04-25T23:48:45;5.30;99.90
